Time;durP1;ratioP1;P1;durP2;ratioP2;P2;SDS_P1;SDS_P2;PMS_P1;PMS_P2;Temp;Humidity;BMP_temperature;BMP_pressure;BME280_temperature;BME280_humidity;BME280_pressure;Samples;Min_cycle;Max_cycle;Signal;HPM_P1;HPM_P2
2022/05/20 00:00:04;;;;;;;2.30;1.00;;;;;;;23.72;47.33;101778.94;5114756;27;20091;-32
2022/05/20 00:02:30;;;;;;;;;;;;;;;23.71;47.39;101774.50;5130273;27;20168;-32
2022/05/20 00:04:55;;;;;;;0.10;0.10;;;;;;;23.71;47.36;101777.28;5121570;27;19928;-32
2022/05/20 00:07:21;;;;;;;0.10;0.10;;;;;;;23.71;47.66;101768.94;5121189;27;20050;-32
2022/05/20 00:09:47;;;;;;;0.10;0.10;;;;;;;23.70;47.54;101776.44;5120572;27;20162;-32
2022/05/20 00:12:12;;;;;;;0.10;0.10;;;;;;;23.71;47.37;101782.84;5117605;27;20046;-32
2022/05/20 00:14:38;;;;;;;0.10;0.10;;;;;;;23.69;47.30;101780.34;5121739;27;20378;-31
2022/05/20 00:17:05;;;;;;;0.10;0.10;;;;;;;23.71;47.30;101785.63;5123157;27;20070;-34
2022/05/20 00:19:32;;;;;;;0.00;0.00;;;;;;;23.70;47.41;101784.78;5124314;27;20125;-33
2022/05/20 00:21:58;;;;;;;0.00;0.00;;;;;;;23.71;47.28;101782.84;5103881;27;20067;-31
2022/05/20 00:24:23;;;;;;;0.10;0.10;;;;;;;23.71;47.39;101786.47;5128262;27;20092;-31
2022/05/20 00:26:50;;;;;;;0.10;0.10;;;;;;;23.71;47.37;101782.84;5119330;27;20049;-32
2022/05/20 00:29:17;;;;;;;0.10;0.10;;;;;;;23.69;47.30;101785.06;5114781;27;20081;-32
2022/05/20 00:31:42;;;;;;;0.10;0.10;;;;;;;23.70;47.38;101786.72;5119712;27;20130;-32
2022/05/20 00:34:09;;;;;;;0.00;0.00;;;;;;;23.70;47.46;101790.34;5121205;27;20402;-32
2022/05/20 00:36:35;;;;;;;0.10;0.10;;;;;;;23.71;47.38;101796.75;5124079;27;20470;-32
2022/05/20 00:39:00;;;;;;;0.10;0.10;;;;;;;23.69;47.41;101796.19;5113747;27;20059;-32
2022/05/20 00:41:26;;;;;;;0.10;0.10;;;;;;;23.69;47.33;101783.13;5120837;27;20055;-31
2022/05/20 00:43:52;;;;;;;0.10;0.10;;;;;;;23.70;47.37;101800.63;5123301;27;20053;-32
2022/05/20 00:46:20;;;;;;;0.10;0.10;;;;;;;23.69;47.37;101804.53;5119550;27;20470;-31
2022/05/20 00:48:47;;;;;;;0.10;0.10;;;;;;;23.69;47.45;101808.16;5119749;27;20496;-31
2022/05/20 00:51:18;;;;;;;0.10;0.10;;;;;;;23.70;47.47;101806.19;5101892;28;20139;-32
2022/05/20 00:53:51;;;;;;;0.00;0.00;;;;;;;23.68;47.31;101806.50;5117736;27;20130;-31
2022/05/20 00:56:24;;;;;;;0.10;0.10;;;;;;;23.69;47.55;101793.41;5125008;27;20183;-32
2022/05/20 00:58:51;;;;;;;0.00;0.00;;;;;;;23.68;47.39;101795.38;5128224;27;20167;-33
2022/05/20 01:01:19;;;;;;;0.10;0.10;;;;;;;23.69;47.48;101801.75;5121418;27;20489;-32
2022/05/20 01:03:44;;;;;;;0.10;0.10;;;;;;;23.68;47.33;101795.38;5123660;27;20288;-32
2022/05/20 01:06:10;;;;;;;0.10;0.10;;;;;;;23.68;47.36;101800.09;5122796;27;20457;-32
2022/05/20 01:08:39;;;;;;;0.10;0.10;;;;;;;23.67;47.32;101796.50;5122989;27;20049;-31
2022/05/20 01:11:05;;;;;;;0.10;0.10;;;;;;;23.68;47.41;101794.53;5101101;28;20097;-31
2022/05/20 01:13:31;;;;;;;0.10;0.10;;;;;;;23.68;47.42;101802.88;5122766;27;20084;-32
2022/05/20 01:16:02;;;;;;;0.10;0.10;;;;;;;23.68;47.32;101798.16;5120081;27;20134;-31
2022/05/20 01:18:30;;;;;;;0.10;0.10;;;;;;;23.67;47.44;101790.94;5121162;27;20050;-31
2022/05/20 01:20:56;;;;;;;0.10;0.10;;;;;;;23.68;47.41;101794.53;5099485;28;20086;-32
2022/05/20 01:23:24;;;;;;;0.10;0.10;;;;;;;23.67;47.40;101790.94;5121361;27;20067;-31
2022/05/20 01:25:53;;;;;;;0.10;0.10;;;;;;;23.67;47.43;101790.94;5118226;27;20075;-33
2022/05/20 01:28:20;;;;;;;0.10;0.10;;;;;;;23.66;47.45;101783.72;5103352;27;20158;-31
2022/05/20 01:30:49;;;;;;;0.10;0.10;;;;;;;23.67;47.58;101781.78;5120287;27;20079;-31
2022/05/20 01:33:41;;;;;;;0.10;0.10;;;;;;;23.66;47.29;101780.94;5105410;27;20187;-31
2022/05/20 01:36:10;;;;;;;0.10;0.10;;;;;;;23.66;47.32;101785.66;5123594;27;20134;-31
2022/05/20 01:38:36;;;;;;;0.10;0.10;;;;;;;23.66;47.31;101772.59;5125952;27;20180;-31
2022/05/20 01:41:06;;;;;;;0.10;0.10;;;;;;;23.66;47.42;101764.25;5125131;27;20074;-31
2022/05/20 01:49:23;;;;;;;0.10;0.10;;;;;;;23.66;47.49;101749.50;5174606;27;20202;-31
2022/05/20 01:51:59;;;;;;;0.10;0.10;;;;;;;23.65;47.46;101757.00;5141102;27;20077;-32
2022/05/20 01:54:35;;;;;;;0.10;0.10;;;;;;;23.65;47.38;101757.00;5145023;27;20073;-30
2022/05/20 01:57:09;;;;;;;0.10;0.10;;;;;;;23.66;47.51;101755.06;5128848;27;20137;-29
2022/05/20 01:59:41;;;;;;;0.10;0.10;;;;;;;23.65;47.23;101750.63;5158427;27;20125;-29
2022/05/20 02:02:24;;;;;;;0.10;0.10;;;;;;;23.65;47.37;101745.88;5162103;27;20845;-31
2022/05/20 02:04:57;;;;;;;0.10;0.10;;;;;;;23.65;47.31;101745.88;5160998;27;20045;-30
2022/05/20 02:07:27;;;;;;;0.10;0.10;;;;;;;23.65;47.19;101729.22;5163632;27;20069;-29
2022/05/20 02:09:59;;;;;;;0.10;0.10;;;;;;;23.64;47.50;101726.69;5163224;27;20465;-29
2022/05/20 02:12:26;;;;;;;0.10;0.10;;;;;;;23.64;47.22;101724.75;5164548;27;20093;-31
2022/05/20 02:14:57;;;;;;;0.10;0.10;;;;;;;23.64;47.30;101735.88;5163249;27;20465;-29
2022/05/20 02:17:28;;;;;;;0.10;0.10;;;;;;;23.65;47.39;101739.50;5126601;27;20081;-30
2022/05/20 02:19:59;;;;;;;0.10;0.10;;;;;;;23.65;47.33;101734.75;5162762;27;20043;-30
2022/05/20 02:22:28;;;;;;;0.10;0.10;;;;;;;23.64;47.42;101726.69;5144063;27;20080;-29
2022/05/20 02:24:55;;;;;;;0.10;0.10;;;;;;;23.65;47.38;101739.50;5161991;27;20150;-30
2022/05/20 02:27:26;;;;;;;0.00;0.00;;;;;;;23.63;47.40;101738.94;5161585;27;20058;-29
2022/05/20 02:29:58;;;;;;;0.10;0.10;;;;;;;23.64;47.45;101730.31;5159392;27;20069;-32
2022/05/20 02:32:28;;;;;;;0.10;0.10;;;;;;;23.63;47.26;101739.78;5165425;27;20481;-29
2022/05/20 02:34:54;;;;;;;0.10;0.10;;;;;;;23.64;47.19;101726.69;5164318;27;20137;-32
2022/05/20 02:37:26;;;;;;;0.10;0.10;;;;;;;23.64;47.34;101737.81;5162062;27;20443;-29
2022/05/20 02:39:53;;;;;;;0.10;0.10;;;;;;;23.64;47.26;101741.44;5162603;27;20381;-30
2022/05/20 02:42:19;;;;;;;0.10;0.10;;;;;;;23.64;47.03;101735.03;5161824;27;20507;-30
2022/05/20 02:44:45;;;;;;;0.10;0.10;;;;;;;23.64;47.35;101729.47;5161095;27;20038;-30
2022/05/20 02:47:11;;;;;;;0.10;0.10;;;;;;;23.64;47.36;101723.91;5163805;27;20397;-30
2022/05/20 02:49:36;;;;;;;0.00;0.00;;;;;;;23.62;47.32;101728.91;5162793;27;20042;-32
2022/05/20 02:52:03;;;;;;;0.10;0.10;;;;;;;23.62;47.47;101723.34;5162399;27;20456;-29
2022/05/20 02:54:29;;;;;;;0.10;0.10;;;;;;;23.63;47.37;101713.91;5164644;27;20167;-29
2022/05/20 02:56:54;;;;;;;0.10;0.10;;;;;;;23.62;47.36;101718.66;5163210;27;20046;-30
2022/05/20 03:04:52;;;;;;;0.10;0.10;;;;;;;23.61;47.28;101721.72;5130679;27;20056;-30
2022/05/20 03:07:18;;;;;;;0.10;0.10;;;;;;;23.62;47.53;101731.69;5148652;27;20151;-30
2022/05/20 03:09:43;;;;;;;0.10;0.10;;;;;;;23.62;47.46;101731.69;5142379;27;20042;-31
2022/05/20 03:12:11;;;;;;;0.10;0.10;;;;;;;23.62;47.33;101734.47;5148811;27;20047;-29
2022/05/20 03:14:38;;;;;;;0.00;0.00;;;;;;;23.61;47.34;101725.31;5147943;27;20081;-31
2022/05/20 03:17:04;;;;;;;0.10;0.10;;;;;;;23.61;47.45;101733.66;5132374;27;20540;-30
2022/05/20 03:19:30;;;;;;;0.10;0.10;;;;;;;23.61;47.36;101736.44;5149292;27;20138;-29
2022/05/20 03:21:57;;;;;;;0.10;0.10;;;;;;;23.62;47.30;101740.91;5145708;27;20085;-30
2022/05/20 03:24:23;;;;;;;0.00;0.00;;;;;;;23.61;47.36;101739.22;5151492;27;20084;-31
2022/05/20 03:26:49;;;;;;;0.10;0.10;;;;;;;23.61;47.45;101732.81;5149470;27;20404;-30
2022/05/20 03:29:15;;;;;;;0.10;0.10;;;;;;;23.61;47.37;101716.16;5145019;27;20122;-30
2022/05/20 03:31:41;;;;;;;0.00;0.00;;;;;;;23.61;47.33;101716.16;5150277;27;20050;-29
2022/05/20 03:34:08;;;;;;;0.10;0.10;;;;;;;23.61;47.40;101710.59;5130423;27;20442;-29
2022/05/20 03:36:34;;;;;;;0.10;0.10;;;;;;;23.61;47.31;101707.81;5150782;27;20057;-30
2022/05/20 03:39:01;;;;;;;0.00;0.00;;;;;;;23.60;47.24;101700.59;5148330;27;20091;-29
2022/05/20 03:41:27;;;;;;;0.10;0.10;;;;;;;23.60;47.29;101712.53;5144938;27;20144;-30
2022/05/20 03:43:52;;;;;;;0.00;0.00;;;;;;;23.60;47.48;101712.53;5136503;27;20070;-30
2022/05/20 03:46:18;;;;;;;0.10;0.10;;;;;;;23.61;47.38;101705.03;5137358;27;20043;-29
2022/05/20 03:48:44;;;;;;;0.00;0.00;;;;;;;23.61;47.46;101713.38;5131336;27;20521;-30
2022/05/20 03:51:12;;;;;;;0.10;0.10;;;;;;;23.60;47.33;101706.16;5140914;27;20047;-29
2022/05/20 03:53:38;;;;;;;0.10;0.10;;;;;;;23.60;47.41;101708.94;5116965;27;20134;-29
2022/05/20 03:56:04;;;;;;;0.10;0.10;;;;;;;23.60;47.36;101711.72;5143600;27;20055;-31
2022/05/20 03:58:30;;;;;;;0.10;0.10;;;;;;;23.60;47.39;101714.50;5135279;27;20397;-29
2022/05/20 04:03:43;;;;;;;0.10;0.10;;;;;;;23.59;47.45;101715.63;5118203;27;20054;-29
2022/05/20 04:06:08;;;;;;;0.10;0.10;;;;;;;23.59;47.41;101712.84;5116578;27;20104;-31
2022/05/20 04:08:34;;;;;;;0.10;0.10;;;;;;;23.59;47.41;101718.41;5131541;27;20751;-29
2022/05/20 04:11:00;;;;;;;0.10;0.10;;;;;;;23.59;47.35;101713.66;5133757;27;20094;-31
2022/05/20 04:13:26;;;;;;;0.10;0.10;;;;;;;23.59;47.29;101710.06;5135159;27;20047;-32
2022/05/20 04:15:54;;;;;;;0.10;0.10;;;;;;;23.59;47.35;101702.56;5136446;27;20043;-29
2022/05/20 04:18:20;;;;;;;0.10;0.10;;;;;;;23.59;47.35;101707.28;5130472;27;20103;-29
2022/05/20 04:20:46;;;;;;;0.10;0.10;;;;;;;23.57;47.35;101702.00;5138818;27;20070;-29
2022/05/20 04:23:14;;;;;;;0.10;0.10;;;;;;;23.58;47.41;101712.03;5134449;27;20469;-29
2022/05/20 04:25:39;;;;;;;0.10;0.10;;;;;;;23.58;47.35;101706.47;5112477;27;20071;-30
2022/05/20 04:28:06;;;;;;;0.10;0.10;;;;;;;23.58;47.22;101712.03;5130289;27;20050;-31
2022/05/20 04:30:31;;;;;;;0.10;0.10;;;;;;;23.58;47.40;101702.84;5134294;27;20127;-31
2022/05/20 04:32:57;;;;;;;0.10;0.10;;;;;;;23.58;47.32;101711.19;5131258;27;20046;-30
2022/05/20 04:35:24;;;;;;;0.10;0.10;;;;;;;23.57;47.36;101715.91;5137473;27;20051;-29
2022/05/20 04:37:50;;;;;;;0.10;0.10;;;;;;;23.57;47.41;101709.50;5133685;27;20135;-31
2022/05/20 04:40:15;;;;;;;0.10;0.10;;;;;;;23.57;47.30;101710.34;5130888;27;20075;-30
2022/05/20 04:48:12;;;;;;;0.10;0.10;;;;;;;23.56;47.23;101699.50;5117674;27;20043;-29
2022/05/20 04:50:39;;;;;;;0.00;0.00;;;;;;;23.56;47.31;101705.91;5132498;27;20447;-30
2022/05/20 04:53:05;;;;;;;0.10;0.10;;;;;;;23.57;47.38;101696.44;5130481;27;20075;-29
2022/05/20 04:55:31;;;;;;;0.10;0.10;;;;;;;23.56;47.32;101692.00;5132722;27;20049;-30
2022/05/20 04:57:57;;;;;;;0.10;0.10;;;;;;;23.56;47.19;101691.19;5111231;27;20042;-29
2022/05/20 05:00:26;;;;;;;0.00;0.00;;;;;;;23.56;47.36;101688.41;5133213;27;20046;-30
2022/05/20 05:02:52;;;;;;;0.10;0.10;;;;;;;23.56;47.25;101692.00;5129410;27;20075;-29
2022/05/20 05:05:20;;;;;;;0.10;0.10;;;;;;;23.56;47.36;101688.41;5132344;27;20046;-29
2022/05/20 05:07:49;;;;;;;0.10;0.10;;;;;;;23.56;47.44;101689.22;5121945;27;20085;-30
2022/05/20 05:10:17;;;;;;;0.10;0.10;;;;;;;23.56;47.41;101685.63;5107342;27;20138;-29
2022/05/20 05:12:43;;;;;;;0.10;0.10;;;;;;;23.56;47.41;101680.88;5128292;27;20154;-30
2022/05/20 05:15:10;;;;;;;0.00;0.00;;;;;;;23.55;47.36;101673.66;5133583;27;20078;-29
2022/05/20 05:20:23;;;;;;;0.10;0.10;;;;;;;23.56;47.44;101664.19;5114527;27;20130;-31
2022/05/20 05:22:49;;;;;;;0.00;0.00;;;;;;;23.56;47.34;101668.94;5127820;27;20051;-29
2022/05/20 05:25:16;;;;;;;0.10;0.10;;;;;;;23.54;47.29;101658.94;5126187;27;20086;-29
2022/05/20 05:27:41;;;;;;;0.10;0.10;;;;;;;23.54;47.34;101658.13;5126134;27;20184;-29
2022/05/20 05:30:09;;;;;;;0.10;0.10;;;;;;;23.54;47.52;101656.16;5124578;27;20051;-28
2022/05/20 05:32:35;;;;;;;0.10;0.10;;;;;;;23.56;47.50;101655.84;5125987;27;20078;-32
2022/05/20 05:35:03;;;;;;;0.10;0.10;;;;;;;23.55;47.38;101651.44;5127335;27;20150;-31
2022/05/20 05:37:28;;;;;;;0.00;0.00;;;;;;;23.55;47.27;101640.31;5126387;27;20143;-29
2022/05/20 05:39:54;;;;;;;0.10;0.10;;;;;;;23.55;47.35;101645.88;5126459;27;20290;-30
2022/05/20 05:42:20;;;;;;;0.10;0.10;;;;;;;23.55;47.37;101637.53;5135756;27;20043;-30
2022/05/20 05:44:47;;;;;;;0.10;0.10;;;;;;;23.56;47.24;101639.19;5126020;27;20118;-31
2022/05/20 05:47:12;;;;;;;0.10;0.10;;;;;;;23.56;47.44;101630.00;5125444;27;20130;-29
2022/05/20 05:49:38;;;;;;;0.10;0.10;;;;;;;23.55;47.28;101626.41;5122695;27;20038;-30
2022/05/20 05:52:04;;;;;;;0.03;0.03;;;;;;;23.54;47.27;101633.91;5116837;27;20066;-29
2022/05/20 05:54:31;;;;;;;0.10;0.10;;;;;;;23.55;47.26;101634.75;5119302;27;20074;-29
2022/05/20 05:57:03;;;;;;;0.00;0.00;;;;;;;23.54;47.34;101639.47;5122182;27;20081;-29
2022/05/20 05:59:31;;;;;;;0.10;0.10;;;;;;;23.54;47.21;101633.91;5115100;27;20193;-29
2022/05/20 06:02:00;;;;;;;0.10;0.10;;;;;;;23.55;47.33;101626.41;5111598;27;20878;-32
2022/05/20 06:04:26;;;;;;;0.10;0.10;;;;;;;23.54;47.32;101620.00;5103616;27;21320;-32
2022/05/20 06:07:02;;;;;;;0.10;0.10;;;;;;;23.55;47.34;101612.50;5102365;27;20157;-31
2022/05/20 06:09:28;;;;;;;0.10;0.10;;;;;;;23.54;47.14;101610.84;5116185;27;20122;-33
2022/05/20 06:11:54;;;;;;;0.10;0.10;;;;;;;23.54;47.43;101606.13;5125376;27;20051;-33
2022/05/20 06:14:19;;;;;;;0.10;0.10;;;;;;;23.55;47.27;101612.50;5122801;27;20084;-32
2022/05/20 06:16:45;;;;;;;0.10;0.10;;;;;;;23.53;47.22;101612.81;5124546;27;20046;-31
2022/05/20 06:19:11;;;;;;;0.10;0.10;;;;;;;23.53;47.33;101609.16;5100437;28;20483;-32
2022/05/20 06:21:37;;;;;;;0.10;0.10;;;;;;;23.54;47.27;101611.69;5099449;27;20540;-32
2022/05/20 06:24:04;;;;;;;0.10;0.10;;;;;;;23.54;47.25;101617.25;5111713;27;20057;-33
2022/05/20 06:26:31;;;;;;;0.10;0.10;;;;;;;23.54;47.30;101611.69;5114288;27;20488;-35
2022/05/20 06:28:57;;;;;;;0.10;0.10;;;;;;;23.53;47.39;101612.81;5118437;27;20081;-31
2022/05/20 06:31:22;;;;;;;0.10;0.10;;;;;;;23.53;47.35;101607.25;5113450;27;20051;-32
2022/05/20 06:33:48;;;;;;;0.10;0.10;;;;;;;23.53;47.42;101604.47;5120466;27;20108;-30
2022/05/20 06:41:45;;;;;;;0.00;0.00;;;;;;;23.52;47.44;101602.78;5105137;27;20127;-31
2022/05/20 06:44:11;;;;;;;0.10;0.10;;;;;;;23.54;47.14;101610.84;5122880;27;20534;-31
2022/05/20 06:46:37;;;;;;;0.10;0.10;;;;;;;23.54;47.23;101610.84;5121609;27;20051;-31
2022/05/20 06:49:03;;;;;;;0.10;0.10;;;;;;;23.54;47.34;101613.63;5109822;27;20465;-32
2022/05/20 06:51:33;;;;;;;0.00;0.00;;;;;;;23.53;47.34;101620.28;5113602;27;20039;-35
2022/05/20 06:54:01;;;;;;;0.10;0.10;;;;;;;23.53;47.23;101623.06;5098714;27;20538;-32
2022/05/20 06:56:29;;;;;;;0.08;0.08;;;;;;;23.52;47.39;101625.03;5112273;27;20129;-31
2022/05/20 06:58:55;;;;;;;0.00;0.00;;;;;;;23.54;47.37;101630.31;5100153;27;20150;-31
2022/05/20 07:01:21;;;;;;;0.10;0.10;;;;;;;23.53;47.29;101615.59;5117632;27;20145;-32
2022/05/20 07:03:47;;;;;;;0.00;0.00;;;;;;;23.53;47.22;101614.72;5105408;27;20494;-31
2022/05/20 07:06:14;;;;;;;0.10;0.10;;;;;;;23.53;47.13;101611.94;5106018;27;20058;-31
2022/05/20 07:08:40;;;;;;;0.10;0.10;;;;;;;23.54;47.30;101599.72;5105326;27;20142;-31
2022/05/20 07:11:06;;;;;;;0.00;0.00;;;;;;;23.53;47.15;101604.47;5103895;27;20770;-31
2022/05/20 07:13:39;;;;;;;0.00;0.00;;;;;;;23.53;47.39;101603.59;5107550;27;20061;-34
2022/05/20 07:16:05;;;;;;;0.10;0.10;;;;;;;23.54;47.35;101596.94;5110172;27;20191;-32
2022/05/20 07:18:32;;;;;;;0.10;0.10;;;;;;;23.33;49.96;101592.72;5100109;27;20470;-32
2022/05/20 07:20:57;;;;;;;0.10;0.10;;;;;;;23.42;49.30;101568.72;5111431;27;20162;-33
2022/05/20 07:23:25;;;;;;;0.10;0.10;;;;;;;23.51;48.88;101573.34;5116922;27;20058;-33
2022/05/20 07:25:51;;;;;;;0.10;0.10;;;;;;;23.54;48.66;101567.19;5118456;27;20546;-36
2022/05/20 07:28:17;;;;;;;0.10;0.10;;;;;;;23.55;48.19;101562.47;5114322;27;20175;-33
2022/05/20 07:30:42;;;;;;;0.10;0.10;;;;;;;23.57;48.30;101559.38;5117925;27;20039;-32
2022/05/20 07:33:08;;;;;;;0.10;0.10;;;;;;;23.58;48.22;101561.06;5113924;27;20046;-33
2022/05/20 07:35:36;;;;;;;0.10;0.10;;;;;;;23.60;47.92;101558.78;5123195;27;20039;-32
2022/05/20 07:38:02;;;;;;;0.00;0.00;;;;;;;23.59;47.94;101555.19;5117289;27;20173;-33
2022/05/20 07:40:28;;;;;;;0.10;0.10;;;;;;;23.60;47.86;101551.28;5119539;27;20692;-31
2022/05/20 07:42:54;;;;;;;0.10;0.10;;;;;;;23.61;47.95;101544.56;5113078;27;20047;-30
2022/05/20 07:45:20;;;;;;;0.10;0.10;;;;;;;23.62;47.88;101545.41;5117493;27;20476;-29
2022/05/20 07:47:46;;;;;;;0.10;0.10;;;;;;;23.62;47.99;101546.25;5117630;27;21067;-29
2022/05/20 07:50:12;;;;;;;0.10;0.10;;;;;;;23.63;47.72;101541.53;5118190;27;20364;-30
2022/05/20 07:55:27;;;;;;;0.10;0.10;;;;;;;23.64;47.42;101532.06;5097636;27;20138;-30
2022/05/20 07:57:53;;;;;;;0.00;0.00;;;;;;;23.64;47.70;101532.88;5110089;27;20054;-30
2022/05/20 08:00:21;;;;;;;0.10;0.10;;;;;;;23.65;47.52;101533.72;5111016;27;20039;-30
2022/05/20 08:02:47;;;;;;;0.10;0.10;;;;;;;23.66;47.80;101530.69;5112317;27;20557;-31
2022/05/20 08:05:15;;;;;;;0.10;0.10;;;;;;;23.66;47.67;101524.25;5112375;27;20431;-33
2022/05/20 08:07:44;;;;;;;0.00;0.00;;;;;;;23.57;49.95;101539.91;5106328;27;20143;-30
2022/05/20 08:10:13;;;;;;;0.10;0.10;;;;;;;23.68;48.77;101530.38;5101427;27;20450;-30
2022/05/20 08:12:39;;;;;;;0.00;0.00;;;;;;;23.73;48.47;101533.91;5098803;27;20142;-29
2022/05/20 08:15:05;;;;;;;0.10;0.10;;;;;;;23.74;48.48;101518.88;5108110;27;20401;-30
2022/05/20 08:17:35;;;;;;;0.10;0.10;;;;;;;23.75;48.25;101511.38;5107626;27;20067;-29
2022/05/20 08:20:04;;;;;;;0.10;0.10;;;;;;;23.76;48.20;101508.28;5103015;27;20112;-31
2022/05/20 08:22:30;;;;;;;0.10;0.10;;;;;;;23.77;47.91;101512.72;5073136;27;20150;-30
2022/05/20 08:24:58;;;;;;;0.03;0.03;;;;;;;23.79;47.97;101512.41;5108366;27;20047;-31
2022/05/20 08:27:26;;;;;;;0.00;0.00;;;;;;;23.79;48.04;101506.84;5101598;27;20067;-29
2022/05/20 08:29:52;;;;;;;0.00;0.00;;;;;;;23.80;47.96;101504.91;5106954;27;20525;-31
2022/05/20 08:32:19;;;;;;;0.10;0.10;;;;;;;23.81;47.86;101501.00;5095140;27;20134;-31
2022/05/20 08:34:45;;;;;;;0.10;0.10;;;;;;;23.82;47.70;101497.09;5101675;27;20582;-32
2022/05/20 08:37:13;;;;;;;0.10;0.10;;;;;;;23.82;47.78;101500.69;5105412;27;20051;-34
2022/05/20 08:39:39;;;;;;;0.00;0.00;;;;;;;23.84;47.87;101497.63;5108199;27;20047;-33
2022/05/20 08:42:12;;;;;;;0.10;0.10;;;;;;;23.85;47.98;101497.31;5096153;27;20414;-30
2022/05/20 08:44:38;;;;;;;0.10;0.10;;;;;;;23.85;47.82;101497.31;5115665;27;20129;-30
2022/05/20 08:47:27;;;;;;;0.00;0.00;;;;;;;23.86;47.83;101487.03;5111888;27;20375;-30
2022/05/20 08:49:58;;;;;;;0.00;0.00;;;;;;;23.87;47.66;101483.09;5091762;27;20089;-30
2022/05/20 08:52:24;;;;;;;0.10;0.10;;;;;;;23.89;47.71;101478.09;5111208;27;20420;-31
2022/05/20 08:54:49;;;;;;;0.00;0.00;;;;;;;23.90;47.49;101463.03;5109533;27;20133;-31
2022/05/20 08:57:36;;;;;;;0.00;0.00;;;;;;;23.90;47.63;101463.03;5096282;27;20055;-31
2022/05/20 09:00:05;;;;;;;0.00;0.00;;;;;;;23.91;47.63;101456.34;5113984;27;20509;-32
2022/05/20 09:02:31;;;;;;;0.00;0.00;;;;;;;23.91;47.54;101453.56;5112839;27;20088;-33
2022/05/20 09:04:57;;;;;;;0.10;0.10;;;;;;;23.92;47.48;101458.84;5114834;27;20043;-32
2022/05/20 09:07:23;;;;;;;0.10;0.10;;;;;;;23.93;47.38;101454.09;5108705;27;20563;-33
2022/05/20 09:09:52;;;;;;;0.00;0.00;;;;;;;23.95;47.47;101457.41;5118767;27;20047;-32
2022/05/20 09:12:38;;;;;;;0.10;0.10;;;;;;;23.96;47.56;101447.91;5117795;27;20050;-32
2022/05/20 09:15:46;;;;;;;0.10;0.10;;;;;;;23.96;47.51;101446.00;5084314;27;20122;-31
2022/05/20 09:18:04;;;;;;;0.10;0.10;;;;;;;23.97;47.42;101444.03;5099656;27;20503;-32
2022/05/20 09:20:30;;;;;;;0.20;0.15;;;;;;;23.96;47.47;101437.66;5115407;27;20138;-35
2022/05/20 09:23:00;;;;;;;0.10;0.10;;;;;;;23.97;47.52;101441.25;5113623;27;20081;-33
2022/05/20 09:25:28;;;;;;;0.10;0.10;;;;;;;23.96;47.41;101437.66;5112226;27;20205;-33
2022/05/20 09:28:12;;;;;;;0.10;0.10;;;;;;;23.97;47.44;101432.91;5116391;27;20530;-32
2022/05/20 09:30:38;;;;;;;0.10;0.10;;;;;;;23.98;47.42;101426.22;5117754;27;20162;-33
2022/05/20 09:33:15;;;;;;;0.00;0.00;;;;;;;23.98;47.45;101426.22;5106760;27;20302;-31
2022/05/20 09:35:47;;;;;;;0.10;0.10;;;;;;;23.96;47.59;101415.38;5107514;27;20141;-33
2022/05/20 09:38:33;;;;;;;0.10;0.10;;;;;;;23.97;47.59;101407.88;5105353;27;20518;-31
2022/05/20 09:41:09;;;;;;;0.10;0.10;;;;;;;23.97;47.54;101408.69;5095789;27;20137;-33
2022/05/20 09:43:40;;;;;;;0.10;0.10;;;;;;;23.97;47.58;101399.53;5108315;27;20146;-32
2022/05/20 09:46:06;;;;;;;0.00;0.00;;;;;;;23.98;47.37;101403.94;5109625;27;20094;-31
2022/05/20 09:48:55;;;;;;;0.10;0.10;;;;;;;23.97;47.35;101407.88;5108105;27;20051;-36
2022/05/20 09:51:33;;;;;;;0.00;0.00;;;;;;;23.97;47.50;101399.53;5099580;27;20039;-34
2022/05/20 09:54:22;;;;;;;0.10;0.10;;;;;;;23.97;47.51;101393.97;5115692;27;20137;-34
2022/05/20 09:59:46;;;;;;;0.10;0.10;;;;;;;23.97;47.68;101382.84;5166402;27;19934;-34
2022/05/20 10:02:22;;;;;;;0.10;0.10;;;;;;;23.96;47.62;101383.94;5152032;27;20978;-33
2022/05/20 10:05:00;;;;;;;0.10;0.10;;;;;;;23.95;47.66;101383.13;5150917;27;20050;-34
2022/05/20 10:07:47;;;;;;;0.10;0.10;;;;;;;23.95;47.66;101371.16;5149356;27;20169;-33
2022/05/20 10:10:33;;;;;;;0.00;0.00;;;;;;;23.95;47.68;101360.84;5154677;27;20065;-35
2022/05/20 10:13:01;;;;;;;0.10;0.10;;;;;;;23.95;47.82;101348.91;5153470;27;20079;-32
2022/05/20 10:15:33;;;;;;;0.00;0.00;;;;;;;23.95;47.66;101332.22;5154887;27;20517;-33
2022/05/20 10:18:26;;;;;;;0.10;0.10;;;;;;;23.94;47.87;101330.56;5149564;27;20137;-34
2022/05/20 10:21:00;;;;;;;0.10;0.10;;;;;;;23.95;47.78;101321.09;5137243;27;20096;-32
2022/05/20 10:23:39;;;;;;;0.10;0.10;;;;;;;23.95;47.70;101318.31;5151022;27;20070;-34
2022/05/20 10:26:31;;;;;;;0.00;0.00;;;;;;;23.94;47.71;101288.84;5130405;27;20449;-33
2022/05/20 10:34:42;;;;;;;0.00;0.00;;;;;;;23.93;48.05;101251.03;5136109;27;20074;-34
2022/05/20 10:37:22;;;;;;;0.00;0.00;;;;;;;23.93;47.73;101245.47;5150406;27;20362;-33
2022/05/20 10:40:07;;;;;;;0.10;0.10;;;;;;;23.93;47.78;101243.53;5145696;27;20038;-34
2022/05/20 10:49:12;;;;;;;0.10;0.10;;;;;;;23.92;47.82;101225.19;5126062;27;20046;-32
2022/05/20 10:55:09;;;;;;;0.10;0.10;;;;;;;23.92;47.95;101213.19;5149498;27;20213;-29
2022/05/20 11:00:21;;;;;;;0.10;0.10;;;;;;;23.91;47.81;101198.47;5161783;27;20221;-30
2022/05/20 11:03:27;;;;;;;0.10;0.10;;;;;;;23.91;47.91;101190.13;5146264;27;20184;-30
2022/05/20 11:06:23;;;;;;;0.00;0.00;;;;;;;23.90;47.97;101185.72;5132169;27;20095;-32
2022/05/20 11:09:19;;;;;;;0.10;0.10;;;;;;;23.92;48.01;101168.69;5122378;27;20130;-32
2022/05/20 11:11:59;;;;;;;0.00;0.00;;;;;;;23.88;50.62;101164.91;5139112;27;20125;-39
2022/05/20 11:15:06;;;;;;;0.10;0.10;;;;;;;23.94;50.57;101150.59;5151502;27;20654;-31
2022/05/20 11:17:56;;;;;;;0.10;0.10;;;;;;;23.99;50.34;101146.88;5139036;27;20130;-32
2022/05/20 11:21:02;;;;;;;0.10;0.10;;;;;;;23.98;50.01;101139.66;5133663;27;20769;-32
2022/05/20 11:24:07;;;;;;;0.10;0.10;;;;;;;23.99;49.70;101132.97;5123379;27;20481;-32
2022/05/20 11:26:58;;;;;;;0.00;0.00;;;;;;;23.98;49.69;101117.41;5135385;27;20073;-32
2022/05/20 11:30:03;;;;;;;0.10;0.10;;;;;;;23.98;49.37;101118.22;5135514;27;20121;-34
2022/05/20 11:33:09;;;;;;;0.10;0.10;;;;;;;23.99;49.13;101103.19;5122187;27;20070;-32
2022/05/20 11:35:59;;;;;;;0.10;0.10;;;;;;;23.99;49.04;101078.16;5122770;27;20126;-32
2022/05/20 11:38:35;;;;;;;0.10;0.10;;;;;;;23.99;49.15;101061.47;5134861;27;20133;-32
2022/05/20 11:41:25;;;;;;;0.10;0.10;;;;;;;24.00;49.15;101053.94;5147717;27;20139;-32
2022/05/20 11:44:15;;;;;;;0.10;0.10;;;;;;;24.01;49.04;101056.41;5109024;27;20074;-31
2022/05/20 11:47:00;;;;;;;0.10;0.10;;;;;;;24.01;49.10;101031.38;5113003;27;20333;-32
2022/05/20 11:49:38;;;;;;;0.10;0.10;;;;;;;24.01;48.87;101020.25;5123996;27;20043;-32
2022/05/20 11:52:42;;;;;;;0.10;0.10;;;;;;;24.03;49.05;101006.03;5125233;27;20515;-31
2022/05/20 11:55:24;;;;;;;0.10;0.10;;;;;;;24.04;48.90;100988.19;5113525;27;20134;-32
2022/05/20 11:57:54;;;;;;;0.10;0.10;;;;;;;24.05;48.97;100984.31;5129571;27;20074;-31
2022/05/20 12:00:21;;;;;;;0.15;0.10;;;;;;;24.06;49.02;100982.34;5126009;27;20055;-30
2022/05/20 12:02:51;;;;;;;0.10;0.10;;;;;;;24.07;48.87;100962.53;5122173;27;20552;-31
2022/05/20 12:05:21;;;;;;;0.10;0.10;;;;;;;24.08;48.86;100949.44;5121191;27;20158;-31
2022/05/20 12:07:47;;;;;;;0.10;0.10;;;;;;;24.09;48.81;100962.22;5127031;27;20138;-31
2022/05/20 12:13:17;;;;;;;0.10;0.10;;;;;;;24.09;48.80;100954.69;5155185;27;20211;-32
2022/05/20 12:16:04;;;;;;;0.10;0.10;;;;;;;24.11;48.76;100949.66;5134074;27;20043;-31
2022/05/20 12:24:15;;;;;;;0.10;0.10;;;;;;;24.12;48.72;100989.41;5129489;27;20192;-31
2022/05/20 12:26:48;;;;;;;0.10;0.10;;;;;;;24.13;48.94;101008.56;5150392;27;20133;-31
2022/05/20 12:29:38;;;;;;;0.00;0.00;;;;;;;24.13;48.89;101028.03;5152075;27;20118;-33
2022/05/20 12:32:25;;;;;;;0.10;0.10;;;;;;;24.13;48.81;101041.97;5130275;27;20264;-31
2022/05/20 12:34:56;;;;;;;0.10;0.10;;;;;;;24.12;48.73;101043.09;5132976;27;20461;-31
2022/05/20 12:43:12;;;;;;;0.10;0.10;;;;;;;24.13;48.81;101022.47;5150908;27;20201;-31
2022/05/20 12:45:56;;;;;;;0.10;0.10;;;;;;;24.12;48.93;101023.63;5150055;27;20413;-30